sensor_id;sensor_type;location;lat;lon;timestamp;temperature;humidity
20492;DHT22;10404;51.468;6.762;2023-08-01T00:00:31;16.90;78.90
20492;DHT22;10404;51.468;6.762;2023-08-01T00:02:57;16.90;79.00
20492;DHT22;10404;51.468;6.762;2023-08-01T00:05:22;16.90;78.80
20492;DHT22;10404;51.468;6.762;2023-08-01T00:07:48;16.90;79.00
20492;DHT22;10404;51.468;6.762;2023-08-01T00:10:14;16.90;79.00
20492;DHT22;10404;51.468;6.762;2023-08-01T00:12:41;16.90;78.80
20492;DHT22;10404;51.468;6.762;2023-08-01T00:15:08;16.90;79.10
20492;DHT22;10404;51.468;6.762;2023-08-01T00:17:34;16.90;78.70
20492;DHT22;10404;51.468;6.762;2023-08-01T00:20:02;16.90;79.20
20492;DHT22;10404;51.468;6.762;2023-08-01T00:22:28;16.90;79.30
20492;DHT22;10404;51.468;6.762;2023-08-01T00:24:54;16.80;79.10
20492;DHT22;10404;51.468;6.762;2023-08-01T00:27:19;16.80;78.90
20492;DHT22;10404;51.468;6.762;2023-08-01T00:29:45;16.80;79.00
20492;DHT22;10404;51.468;6.762;2023-08-01T00:32:11;16.80;78.90
20492;DHT22;10404;51.468;6.762;2023-08-01T00:34:37;16.80;78.60
20492;DHT22;10404;51.468;6.762;2023-08-01T00:37:03;16.80;79.00
20492;DHT22;10404;51.468;6.762;2023-08-01T00:39:28;16.80;79.30
20492;DHT22;10404;51.468;6.762;2023-08-01T00:41:54;16.80;79.00
20492;DHT22;10404;51.468;6.762;2023-08-01T00:44:20;16.80;79.20
20492;DHT22;10404;51.468;6.762;2023-08-01T00:46:45;16.80;79.00
20492;DHT22;10404;51.468;6.762;2023-08-01T00:49:12;16.80;78.90
20492;DHT22;10404;51.468;6.762;2023-08-01T00:51:37;16.80;79.00
20492;DHT22;10404;51.468;6.762;2023-08-01T00:54:03;16.80;78.60
20492;DHT22;10404;51.468;6.762;2023-08-01T00:56:29;16.70;78.90
20492;DHT22;10404;51.468;6.762;2023-08-01T00:58:54;16.70;78.70
20492;DHT22;10404;51.468;6.762;2023-08-01T01:01:20;16.70;78.90
20492;DHT22;10404;51.468;6.762;2023-08-01T01:03:46;16.70;78.50
20492;DHT22;10404;51.468;6.762;2023-08-01T01:06:13;16.70;78.70
20492;DHT22;10404;51.468;6.762;2023-08-01T01:08:43;16.70;78.60
20492;DHT22;10404;51.468;6.762;2023-08-01T01:11:09;16.70;78.60
20492;DHT22;10404;51.468;6.762;2023-08-01T01:13:34;16.70;78.30
20492;DHT22;10404;51.468;6.762;2023-08-01T01:16:00;16.70;78.50
20492;DHT22;10404;51.468;6.762;2023-08-01T01:18:26;16.70;78.60
20492;DHT22;10404;51.468;6.762;2023-08-01T01:20:51;16.70;78.60
20492;DHT22;10404;51.468;6.762;2023-08-01T01:23:18;16.70;78.30
20492;DHT22;10404;51.468;6.762;2023-08-01T01:25:45;16.70;78.90
20492;DHT22;10404;51.468;6.762;2023-08-01T01:28:12;16.70;78.90
20492;DHT22;10404;51.468;6.762;2023-08-01T01:30:38;16.70;78.50
20492;DHT22;10404;51.468;6.762;2023-08-01T01:33:04;16.70;78.70
20492;DHT22;10404;51.468;6.762;2023-08-01T01:35:32;16.70;79.40
20492;DHT22;10404;51.468;6.762;2023-08-01T01:37:58;16.70;78.90
20492;DHT22;10404;51.468;6.762;2023-08-01T01:40:27;16.70;79.30
20492;DHT22;10404;51.468;6.762;2023-08-01T01:42:52;16.70;79.00
20492;DHT22;10404;51.468;6.762;2023-08-01T01:45:18;16.60;79.00
20492;DHT22;10404;51.468;6.762;2023-08-01T01:47:43;16.60;79.00
20492;DHT22;10404;51.468;6.762;2023-08-01T01:50:09;16.60;79.20
20492;DHT22;10404;51.468;6.762;2023-08-01T01:52:35;16.60;79.20
20492;DHT22;10404;51.468;6.762;2023-08-01T01:55:01;16.60;79.00
20492;DHT22;10404;51.468;6.762;2023-08-01T01:57:26;16.60;79.20
20492;DHT22;10404;51.468;6.762;2023-08-01T01:59:52;16.60;79.30
20492;DHT22;10404;51.468;6.762;2023-08-01T02:02:18;16.60;79.10
20492;DHT22;10404;51.468;6.762;2023-08-01T02:04:46;16.60;79.10
20492;DHT22;10404;51.468;6.762;2023-08-01T02:07:12;16.60;79.00
20492;DHT22;10404;51.468;6.762;2023-08-01T02:09:39;16.50;78.90
20492;DHT22;10404;51.468;6.762;2023-08-01T02:12:05;16.50;79.30
20492;DHT22;10404;51.468;6.762;2023-08-01T02:14:33;16.50;78.90
20492;DHT22;10404;51.468;6.762;2023-08-01T02:16:58;16.50;78.90
20492;DHT22;10404;51.468;6.762;2023-08-01T02:19:24;16.50;79.20
20492;DHT22;10404;51.468;6.762;2023-08-01T02:21:50;16.50;79.00
20492;DHT22;10404;51.468;6.762;2023-08-01T02:24:15;16.50;78.90
20492;DHT22;10404;51.468;6.762;2023-08-01T02:26:41;16.50;79.00
20492;DHT22;10404;51.468;6.762;2023-08-01T02:29:06;16.50;79.00
20492;DHT22;10404;51.468;6.762;2023-08-01T02:31:32;16.40;79.40
20492;DHT22;10404;51.468;6.762;2023-08-01T02:33:57;16.40;79.10
20492;DHT22;10404;51.468;6.762;2023-08-01T02:36:23;16.40;79.00
20492;DHT22;10404;51.468;6.762;2023-08-01T02:38:49;16.40;79.00
20492;DHT22;10404;51.468;6.762;2023-08-01T02:41:14;16.40;79.30
20492;DHT22;10404;51.468;6.762;2023-08-01T02:43:40;16.40;79.40
20492;DHT22;10404;51.468;6.762;2023-08-01T02:46:06;16.40;79.30
20492;DHT22;10404;51.468;6.762;2023-08-01T02:48:32;16.40;79.30
20492;DHT22;10404;51.468;6.762;2023-08-01T02:50:58;16.40;79.00
20492;DHT22;10404;51.468;6.762;2023-08-01T02:53:24;16.40;79.10
20492;DHT22;10404;51.468;6.762;2023-08-01T02:55:49;16.40;79.00
20492;DHT22;10404;51.468;6.762;2023-08-01T02:58:15;16.40;79.10
20492;DHT22;10404;51.468;6.762;2023-08-01T03:00:41;16.40;79.20
20492;DHT22;10404;51.468;6.762;2023-08-01T03:03:06;16.40;79.20
20492;DHT22;10404;51.468;6.762;2023-08-01T03:05:35;16.30;79.20
20492;DHT22;10404;51.468;6.762;2023-08-01T03:08:00;16.30;79.40
20492;DHT22;10404;51.468;6.762;2023-08-01T03:10:26;16.30;79.40
20492;DHT22;10404;51.468;6.762;2023-08-01T03:12:52;16.30;79.20
20492;DHT22;10404;51.468;6.762;2023-08-01T03:15:17;16.30;79.30
20492;DHT22;10404;51.468;6.762;2023-08-01T03:17:43;16.30;79.10
20492;DHT22;10404;51.468;6.762;2023-08-01T03:20:09;16.30;79.60
20492;DHT22;10404;51.468;6.762;2023-08-01T03:22:38;16.30;79.30
20492;DHT22;10404;51.468;6.762;2023-08-01T03:25:04;16.30;79.10
20492;DHT22;10404;51.468;6.762;2023-08-01T03:27:33;16.20;79.50
20492;DHT22;10404;51.468;6.762;2023-08-01T03:29:58;16.20;79.30
20492;DHT22;10404;51.468;6.762;2023-08-01T03:32:24;16.20;79.50
20492;DHT22;10404;51.468;6.762;2023-08-01T03:34:50;16.20;79.50
20492;DHT22;10404;51.468;6.762;2023-08-01T03:37:16;16.20;79.50
20492;DHT22;10404;51.468;6.762;2023-08-01T03:39:42;16.20;79.20
20492;DHT22;10404;51.468;6.762;2023-08-01T03:42:07;16.20;79.20
20492;DHT22;10404;51.468;6.762;2023-08-01T03:44:33;16.10;79.30
20492;DHT22;10404;51.468;6.762;2023-08-01T03:46:59;16.10;79.40
20492;DHT22;10404;51.468;6.762;2023-08-01T03:49:25;16.10;79.30
20492;DHT22;10404;51.468;6.762;2023-08-01T03:51:51;16.10;79.30
20492;DHT22;10404;51.468;6.762;2023-08-01T03:54:16;16.10;79.10
20492;DHT22;10404;51.468;6.762;2023-08-01T03:56:42;16.10;79.30
20492;DHT22;10404;51.468;6.762;2023-08-01T03:59:10;16.00;79.20
20492;DHT22;10404;51.468;6.762;2023-08-01T04:01:36;16.00;79.40
20492;DHT22;10404;51.468;6.762;2023-08-01T04:04:02;16.00;79.20
20492;DHT22;10404;51.468;6.762;2023-08-01T04:06:28;16.00;79.20
20492;DHT22;10404;51.468;6.762;2023-08-01T04:08:53;16.00;79.00
20492;DHT22;10404;51.468;6.762;2023-08-01T04:11:22;16.00;78.90
20492;DHT22;10404;51.468;6.762;2023-08-01T04:13:47;16.00;78.90
20492;DHT22;10404;51.468;6.762;2023-08-01T04:16:13;16.00;79.10
20492;DHT22;10404;51.468;6.762;2023-08-01T04:18:39;16.00;79.10
20492;DHT22;10404;51.468;6.762;2023-08-01T04:21:05;16.00;79.00
20492;DHT22;10404;51.468;6.762;2023-08-01T04:23:31;16.00;78.90
20492;DHT22;10404;51.468;6.762;2023-08-01T04:25:57;16.00;79.20
20492;DHT22;10404;51.468;6.762;2023-08-01T04:28:25;16.00;78.90
20492;DHT22;10404;51.468;6.762;2023-08-01T04:30:51;15.90;79.10
20492;DHT22;10404;51.468;6.762;2023-08-01T04:33:17;15.90;79.10
20492;DHT22;10404;51.468;6.762;2023-08-01T04:35:43;15.90;79.00
20492;DHT22;10404;51.468;6.762;2023-08-01T04:38:09;15.90;78.80
20492;DHT22;10404;51.468;6.762;2023-08-01T04:40:36;15.90;79.00
20492;DHT22;10404;51.468;6.762;2023-08-01T04:43:02;15.80;79.00
20492;DHT22;10404;51.468;6.762;2023-08-01T04:45:27;15.80;79.10
20492;DHT22;10404;51.468;6.762;2023-08-01T04:47:53;15.80;79.10
20492;DHT22;10404;51.468;6.762;2023-08-01T04:50:19;15.80;79.00
20492;DHT22;10404;51.468;6.762;2023-08-01T04:52:44;15.80;79.30
20492;DHT22;10404;51.468;6.762;2023-08-01T04:55:10;15.80;79.10
20492;DHT22;10404;51.468;6.762;2023-08-01T04:57:35;15.80;79.10
20492;DHT22;10404;51.468;6.762;2023-08-01T05:00:02;15.80;79.00
20492;DHT22;10404;51.468;6.762;2023-08-01T05:02:28;15.80;79.10
20492;DHT22;10404;51.468;6.762;2023-08-01T05:04:54;15.80;78.80
20492;DHT22;10404;51.468;6.762;2023-08-01T05:07:19;15.80;78.90
20492;DHT22;10404;51.468;6.762;2023-08-01T05:09:45;15.80;78.90
20492;DHT22;10404;51.468;6.762;2023-08-01T05:12:11;15.80;78.80
20492;DHT22;10404;51.468;6.762;2023-08-01T05:14:36;15.80;78.80
20492;DHT22;10404;51.468;6.762;2023-08-01T05:17:02;15.80;78.90
20492;DHT22;10404;51.468;6.762;2023-08-01T05:19:28;15.80;79.30
20492;DHT22;10404;51.468;6.762;2023-08-01T05:21:53;15.80;79.50
20492;DHT22;10404;51.468;6.762;2023-08-01T05:24:20;15.80;79.20
20492;DHT22;10404;51.468;6.762;2023-08-01T05:26:46;15.80;79.10
20492;DHT22;10404;51.468;6.762;2023-08-01T05:29:12;15.80;79.20
20492;DHT22;10404;51.468;6.762;2023-08-01T05:31:38;15.80;79.10
20492;DHT22;10404;51.468;6.762;2023-08-01T05:34:03;15.80;79.10
20492;DHT22;10404;51.468;6.762;2023-08-01T05:36:29;15.80;79.10
20492;DHT22;10404;51.468;6.762;2023-08-01T05:38:55;15.80;78.90
20492;DHT22;10404;51.468;6.762;2023-08-01T05:41:21;15.80;78.90
20492;DHT22;10404;51.468;6.762;2023-08-01T05:43:48;15.80;79.20
20492;DHT22;10404;51.468;6.762;2023-08-01T05:46:14;15.80;79.20
20492;DHT22;10404;51.468;6.762;2023-08-01T05:48:40;15.80;79.40
20492;DHT22;10404;51.468;6.762;2023-08-01T05:51:05;15.80;79.00
20492;DHT22;10404;51.468;6.762;2023-08-01T05:53:31;15.80;79.20
20492;DHT22;10404;51.468;6.762;2023-08-01T05:55:57;15.80;79.20
20492;DHT22;10404;51.468;6.762;2023-08-01T05:58:22;15.80;79.10
20492;DHT22;10404;51.468;6.762;2023-08-01T06:00:48;15.80;79.10
20492;DHT22;10404;51.468;6.762;2023-08-01T06:03:14;15.80;79.10
20492;DHT22;10404;51.468;6.762;2023-08-01T06:05:40;15.80;79.30
20492;DHT22;10404;51.468;6.762;2023-08-01T06:08:06;15.80;79.10
20492;DHT22;10404;51.468;6.762;2023-08-01T06:10:33;15.80;79.00
20492;DHT22;10404;51.468;6.762;2023-08-01T06:12:59;15.80;79.00
20492;DHT22;10404;51.468;6.762;2023-08-01T06:15:24;15.80;79.10
20492;DHT22;10404;51.468;6.762;2023-08-01T06:17:50;15.80;78.90
20492;DHT22;10404;51.468;6.762;2023-08-01T06:20:15;15.80;78.80
20492;DHT22;10404;51.468;6.762;2023-08-01T06:22:42;15.80;79.80
20492;DHT22;10404;51.468;6.762;2023-08-01T06:25:08;15.80;79.10
20492;DHT22;10404;51.468;6.762;2023-08-01T06:27:34;15.80;79.30
20492;DHT22;10404;51.468;6.762;2023-08-01T06:30:00;15.80;79.30
20492;DHT22;10404;51.468;6.762;2023-08-01T06:32:26;15.80;79.10
20492;DHT22;10404;51.468;6.762;2023-08-01T06:34:52;15.80;79.30
20492;DHT22;10404;51.468;6.762;2023-08-01T06:37:17;15.80;79.30
20492;DHT22;10404;51.468;6.762;2023-08-01T06:39:43;15.80;79.40
20492;DHT22;10404;51.468;6.762;2023-08-01T06:42:09;15.80;79.20
20492;DHT22;10404;51.468;6.762;2023-08-01T06:44:35;15.80;79.30
20492;DHT22;10404;51.468;6.762;2023-08-01T06:47:00;15.80;79.40
20492;DHT22;10404;51.468;6.762;2023-08-01T06:49:26;15.80;79.40
20492;DHT22;10404;51.468;6.762;2023-08-01T06:51:52;15.80;79.20
20492;DHT22;10404;51.468;6.762;2023-08-01T06:54:17;15.80;79.50
20492;DHT22;10404;51.468;6.762;2023-08-01T06:56:43;15.80;79.00
20492;DHT22;10404;51.468;6.762;2023-08-01T06:59:13;15.80;79.70
20492;DHT22;10404;51.468;6.762;2023-08-01T07:01:40;15.90;79.60
20492;DHT22;10404;51.468;6.762;2023-08-01T07:04:11;16.00;79.90
20492;DHT22;10404;51.468;6.762;2023-08-01T07:06:37;16.00;79.50
20492;DHT22;10404;51.468;6.762;2023-08-01T07:09:02;16.00;79.70
20492;DHT22;10404;51.468;6.762;2023-08-01T07:11:28;16.00;79.60
20492;DHT22;10404;51.468;6.762;2023-08-01T07:13:53;16.00;79.90
20492;DHT22;10404;51.468;6.762;2023-08-01T07:16:19;15.90;80.10
20492;DHT22;10404;51.468;6.762;2023-08-01T07:18:45;16.00;80.20
20492;DHT22;10404;51.468;6.762;2023-08-01T07:21:10;16.00;80.20
20492;DHT22;10404;51.468;6.762;2023-08-01T07:23:36;16.00;79.80
20492;DHT22;10404;51.468;6.762;2023-08-01T07:26:02;16.00;79.90
20492;DHT22;10404;51.468;6.762;2023-08-01T07:28:28;16.00;79.90
20492;DHT22;10404;51.468;6.762;2023-08-01T07:31:04;16.00;79.90
20492;DHT22;10404;51.468;6.762;2023-08-01T07:33:31;16.00;80.10
20492;DHT22;10404;51.468;6.762;2023-08-01T07:35:57;16.00;79.80
20492;DHT22;10404;51.468;6.762;2023-08-01T07:38:23;16.00;79.90
20492;DHT22;10404;51.468;6.762;2023-08-01T07:40:49;16.00;79.80
20492;DHT22;10404;51.468;6.762;2023-08-01T07:43:15;16.10;79.90
20492;DHT22;10404;51.468;6.762;2023-08-01T07:45:41;16.10;79.90
20492;DHT22;10404;51.468;6.762;2023-08-01T07:48:07;16.10;79.70
20492;DHT22;10404;51.468;6.762;2023-08-01T07:50:33;16.10;80.20
20492;DHT22;10404;51.468;6.762;2023-08-01T07:52:58;16.10;80.40
20492;DHT22;10404;51.468;6.762;2023-08-01T07:55:24;16.20;80.60
20492;DHT22;10404;51.468;6.762;2023-08-01T07:57:50;16.30;80.20
20492;DHT22;10404;51.468;6.762;2023-08-01T08:00:16;16.40;80.20
20492;DHT22;10404;51.468;6.762;2023-08-01T08:02:42;16.40;79.80
20492;DHT22;10404;51.468;6.762;2023-08-01T08:05:09;16.50;79.80
20492;DHT22;10404;51.468;6.762;2023-08-01T08:07:36;16.50;79.60
20492;DHT22;10404;51.468;6.762;2023-08-01T08:10:02;16.50;79.80
20492;DHT22;10404;51.468;6.762;2023-08-01T08:12:28;16.50;79.70
20492;DHT22;10404;51.468;6.762;2023-08-01T08:14:53;16.60;79.60
20492;DHT22;10404;51.468;6.762;2023-08-01T08:17:19;16.60;79.50
20492;DHT22;10404;51.468;6.762;2023-08-01T08:19:44;16.60;79.40
20492;DHT22;10404;51.468;6.762;2023-08-01T08:22:10;16.60;79.50
20492;DHT22;10404;51.468;6.762;2023-08-01T08:24:36;16.60;79.50
20492;DHT22;10404;51.468;6.762;2023-08-01T08:27:02;16.60;79.40
20492;DHT22;10404;51.468;6.762;2023-08-01T08:29:28;16.60;79.60
20492;DHT22;10404;51.468;6.762;2023-08-01T08:31:53;16.70;79.50
20492;DHT22;10404;51.468;6.762;2023-08-01T08:34:19;16.70;79.60
20492;DHT22;10404;51.468;6.762;2023-08-01T08:36:45;16.70;79.60
20492;DHT22;10404;51.468;6.762;2023-08-01T08:39:12;16.70;79.70
20492;DHT22;10404;51.468;6.762;2023-08-01T08:41:46;16.70;79.90
20492;DHT22;10404;51.468;6.762;2023-08-01T08:44:16;16.80;79.90
20492;DHT22;10404;51.468;6.762;2023-08-01T08:46:43;16.90;79.70
20492;DHT22;10404;51.468;6.762;2023-08-01T08:49:10;17.20;79.10
20492;DHT22;10404;51.468;6.762;2023-08-01T08:51:37;17.40;78.50
20492;DHT22;10404;51.468;6.762;2023-08-01T08:54:06;17.50;78.10
20492;DHT22;10404;51.468;6.762;2023-08-01T08:56:34;17.50;78.00
20492;DHT22;10404;51.468;6.762;2023-08-01T08:59:00;17.60;77.80
20492;DHT22;10404;51.468;6.762;2023-08-01T09:01:26;17.80;77.30
20492;DHT22;10404;51.468;6.762;2023-08-01T09:03:52;17.80;77.20
20492;DHT22;10404;51.468;6.762;2023-08-01T09:06:24;17.80;76.90
20492;DHT22;10404;51.468;6.762;2023-08-01T09:09:01;18.00;76.60
20492;DHT22;10404;51.468;6.762;2023-08-01T09:11:27;17.90;76.60
20492;DHT22;10404;51.468;6.762;2023-08-01T09:13:53;18.00;76.50
20492;DHT22;10404;51.468;6.762;2023-08-01T09:16:19;18.00;76.30
20492;DHT22;10404;51.468;6.762;2023-08-01T09:18:51;18.00;76.20
20492;DHT22;10404;51.468;6.762;2023-08-01T09:21:18;18.10;76.20
20492;DHT22;10404;51.468;6.762;2023-08-01T09:23:44;18.10;76.40
20492;DHT22;10404;51.468;6.762;2023-08-01T09:26:17;18.10;76.30
20492;DHT22;10404;51.468;6.762;2023-08-01T09:28:43;18.10;76.20
20492;DHT22;10404;51.468;6.762;2023-08-01T09:31:11;18.00;76.10
20492;DHT22;10404;51.468;6.762;2023-08-01T09:33:40;18.00;76.10
20492;DHT22;10404;51.468;6.762;2023-08-01T09:36:07;18.20;75.90
20492;DHT22;10404;51.468;6.762;2023-08-01T09:38:37;18.30;75.50
20492;DHT22;10404;51.468;6.762;2023-08-01T09:41:03;18.40;75.20
20492;DHT22;10404;51.468;6.762;2023-08-01T09:43:36;18.50;75.10
20492;DHT22;10404;51.468;6.762;2023-08-01T09:46:03;18.60;75.00
20492;DHT22;10404;51.468;6.762;2023-08-01T09:48:31;18.70;74.20
20492;DHT22;10404;51.468;6.762;2023-08-01T09:51:14;18.80;73.90
20492;DHT22;10404;51.468;6.762;2023-08-01T09:53:51;18.90;73.20
20492;DHT22;10404;51.468;6.762;2023-08-01T09:56:25;18.90;73.30
20492;DHT22;10404;51.468;6.762;2023-08-01T09:58:54;18.80;73.60
20492;DHT22;10404;51.468;6.762;2023-08-01T10:01:21;18.90;73.80
20492;DHT22;10404;51.468;6.762;2023-08-01T10:03:49;19.00;73.60
20492;DHT22;10404;51.468;6.762;2023-08-01T10:06:21;19.00;73.40
20492;DHT22;10404;51.468;6.762;2023-08-01T10:08:48;19.00;73.00
20492;DHT22;10404;51.468;6.762;2023-08-01T10:11:16;19.10;72.60
20492;DHT22;10404;51.468;6.762;2023-08-01T10:13:42;19.20;72.50
20492;DHT22;10404;51.468;6.762;2023-08-01T10:16:09;19.30;72.10
20492;DHT22;10404;51.468;6.762;2023-08-01T10:18:36;19.40;71.60
20492;DHT22;10404;51.468;6.762;2023-08-01T10:21:06;19.40;68.30
20492;DHT22;10404;51.468;6.762;2023-08-01T10:23:33;19.20;67.90
20492;DHT22;10404;51.468;6.762;2023-08-01T10:26:00;19.20;69.10
20492;DHT22;10404;51.468;6.762;2023-08-01T10:28:36;19.40;69.50
20492;DHT22;10404;51.468;6.762;2023-08-01T10:31:14;19.50;69.50
20492;DHT22;10404;51.468;6.762;2023-08-01T10:33:45;19.70;69.20
20492;DHT22;10404;51.468;6.762;2023-08-01T10:36:23;19.80;68.80
20492;DHT22;10404;51.468;6.762;2023-08-01T10:38:54;19.90;68.60
20492;DHT22;10404;51.468;6.762;2023-08-01T10:41:33;19.90;68.40
20492;DHT22;10404;51.468;6.762;2023-08-01T10:44:08;19.90;68.10
20492;DHT22;10404;51.468;6.762;2023-08-01T10:49:14;19.90;67.80
20492;DHT22;10404;51.468;6.762;2023-08-01T10:51:40;19.90;67.30
20492;DHT22;10404;51.468;6.762;2023-08-01T10:54:05;19.70;67.10
20492;DHT22;10404;51.468;6.762;2023-08-01T10:56:32;19.70;67.80
20492;DHT22;10404;51.468;6.762;2023-08-01T10:58:58;19.70;68.10
20492;DHT22;10404;51.468;6.762;2023-08-01T11:01:24;19.70;68.40
20492;DHT22;10404;51.468;6.762;2023-08-01T11:03:52;19.70;68.80
20492;DHT22;10404;51.468;6.762;2023-08-01T11:06:17;19.70;69.10
20492;DHT22;10404;51.468;6.762;2023-08-01T11:08:43;19.70;69.00
20492;DHT22;10404;51.468;6.762;2023-08-01T11:11:12;19.70;69.20
20492;DHT22;10404;51.468;6.762;2023-08-01T11:13:38;19.70;69.30
20492;DHT22;10404;51.468;6.762;2023-08-01T11:16:04;19.70;69.30
20492;DHT22;10404;51.468;6.762;2023-08-01T11:18:43;19.70;69.10
20492;DHT22;10404;51.468;6.762;2023-08-01T11:21:09;19.70;69.00
20492;DHT22;10404;51.468;6.762;2023-08-01T11:23:35;19.70;69.10
20492;DHT22;10404;51.468;6.762;2023-08-01T11:26:09;19.90;69.10
20492;DHT22;10404;51.468;6.762;2023-08-01T11:28:35;20.00;68.70
20492;DHT22;10404;51.468;6.762;2023-08-01T11:31:00;20.00;68.50
20492;DHT22;10404;51.468;6.762;2023-08-01T11:33:26;20.10;68.20
20492;DHT22;10404;51.468;6.762;2023-08-01T11:35:56;20.10;67.50
20492;DHT22;10404;51.468;6.762;2023-08-01T11:38:30;20.00;67.80
20492;DHT22;10404;51.468;6.762;2023-08-01T11:40:57;20.00;67.40
20492;DHT22;10404;51.468;6.762;2023-08-01T11:43:23;20.00;67.10
20492;DHT22;10404;51.468;6.762;2023-08-01T11:45:50;20.00;67.60
20492;DHT22;10404;51.468;6.762;2023-08-01T11:48:16;20.10;67.50
20492;DHT22;10404;51.468;6.762;2023-08-01T11:50:42;20.10;67.20
20492;DHT22;10404;51.468;6.762;2023-08-01T11:53:20;20.10;67.00
20492;DHT22;10404;51.468;6.762;2023-08-01T11:55:47;20.10;66.70
20492;DHT22;10404;51.468;6.762;2023-08-01T11:58:13;20.10;66.50
20492;DHT22;10404;51.468;6.762;2023-08-01T12:00:40;20.10;66.30
20492;DHT22;10404;51.468;6.762;2023-08-01T12:03:07;20.10;66.20
20492;DHT22;10404;51.468;6.762;2023-08-01T12:05:38;20.10;66.30
20492;DHT22;10404;51.468;6.762;2023-08-01T12:08:11;20.10;66.50
20492;DHT22;10404;51.468;6.762;2023-08-01T12:10:38;20.10;66.40
20492;DHT22;10404;51.468;6.762;2023-08-01T12:13:04;20.10;66.30
20492;DHT22;10404;51.468;6.762;2023-08-01T12:15:30;20.10;66.40
20492;DHT22;10404;51.468;6.762;2023-08-01T12:17:57;20.10;66.40
20492;DHT22;10404;51.468;6.762;2023-08-01T12:20:22;20.10;66.20
20492;DHT22;10404;51.468;6.762;2023-08-01T12:22:48;20.10;66.40
20492;DHT22;10404;51.468;6.762;2023-08-01T12:25:13;20.10;66.40
20492;DHT22;10404;51.468;6.762;2023-08-01T12:27:39;20.10;66.40
20492;DHT22;10404;51.468;6.762;2023-08-01T12:30:05;20.10;66.50
20492;DHT22;10404;51.468;6.762;2023-08-01T12:32:31;20.10;66.60
20492;DHT22;10404;51.468;6.762;2023-08-01T12:34:56;20.10;66.70
20492;DHT22;10404;51.468;6.762;2023-08-01T12:37:22;20.10;66.60
20492;DHT22;10404;51.468;6.762;2023-08-01T12:39:48;20.10;66.50
20492;DHT22;10404;51.468;6.762;2023-08-01T12:42:13;20.10;66.70
20492;DHT22;10404;51.468;6.762;2023-08-01T12:44:40;20.10;66.60
20492;DHT22;10404;51.468;6.762;2023-08-01T12:47:05;20.10;66.50
20492;DHT22;10404;51.468;6.762;2023-08-01T12:49:33;20.30;66.40
20492;DHT22;10404;51.468;6.762;2023-08-01T12:51:59;20.30;66.50
20492;DHT22;10404;51.468;6.762;2023-08-01T12:54:24;20.30;66.20
20492;DHT22;10404;51.468;6.762;2023-08-01T12:56:50;20.50;66.00
20492;DHT22;10404;51.468;6.762;2023-08-01T12:59:16;20.50;65.40
20492;DHT22;10404;51.468;6.762;2023-08-01T13:01:41;20.60;65.00
20492;DHT22;10404;51.468;6.762;2023-08-01T13:04:07;20.60;65.00
20492;DHT22;10404;51.468;6.762;2023-08-01T13:06:32;20.70;64.90
20492;DHT22;10404;51.468;6.762;2023-08-01T13:08:58;20.80;64.50
20492;DHT22;10404;51.468;6.762;2023-08-01T13:11:24;20.80;63.70
20492;DHT22;10404;51.468;6.762;2023-08-01T13:13:49;20.80;63.30
20492;DHT22;10404;51.468;6.762;2023-08-01T13:16:15;20.70;62.20
20492;DHT22;10404;51.468;6.762;2023-08-01T13:18:41;20.60;62.70
20492;DHT22;10404;51.468;6.762;2023-08-01T13:21:09;20.70;61.90
20492;DHT22;10404;51.468;6.762;2023-08-01T13:23:36;20.70;62.70
20492;DHT22;10404;51.468;6.762;2023-08-01T13:26:01;20.70;62.20
20492;DHT22;10404;51.468;6.762;2023-08-01T13:28:27;20.70;62.50
20492;DHT22;10404;51.468;6.762;2023-08-01T13:30:53;20.70;62.50
20492;DHT22;10404;51.468;6.762;2023-08-01T13:33:19;20.80;61.70
20492;DHT22;10404;51.468;6.762;2023-08-01T13:35:44;20.80;62.10
20492;DHT22;10404;51.468;6.762;2023-08-01T13:38:10;20.80;61.30
20492;DHT22;10404;51.468;6.762;2023-08-01T13:40:36;20.80;61.30
20492;DHT22;10404;51.468;6.762;2023-08-01T13:43:01;20.80;61.60
20492;DHT22;10404;51.468;6.762;2023-08-01T13:45:30;20.90;61.80
20492;DHT22;10404;51.468;6.762;2023-08-01T13:47:56;21.00;62.00
20492;DHT22;10404;51.468;6.762;2023-08-01T13:50:22;21.10;59.20
20492;DHT22;10404;51.468;6.762;2023-08-01T13:52:47;21.10;60.50
20492;DHT22;10404;51.468;6.762;2023-08-01T13:55:13;21.20;59.90
20492;DHT22;10404;51.468;6.762;2023-08-01T13:57:42;21.30;59.40
20492;DHT22;10404;51.468;6.762;2023-08-01T14:00:08;21.50;58.40
20492;DHT22;10404;51.468;6.762;2023-08-01T14:02:34;21.50;56.70
20492;DHT22;10404;51.468;6.762;2023-08-01T14:05:00;21.60;56.80
20492;DHT22;10404;51.468;6.762;2023-08-01T14:07:25;21.80;57.30
20492;DHT22;10404;51.468;6.762;2023-08-01T14:09:51;21.90;57.50
20492;DHT22;10404;51.468;6.762;2023-08-01T14:12:16;22.10;57.40
20492;DHT22;10404;51.468;6.762;2023-08-01T14:14:44;22.30;57.40
20492;DHT22;10404;51.468;6.762;2023-08-01T14:17:10;22.50;57.00
20492;DHT22;10404;51.468;6.762;2023-08-01T14:19:35;22.50;56.90
20492;DHT22;10404;51.468;6.762;2023-08-01T14:22:01;22.60;56.30
20492;DHT22;10404;51.468;6.762;2023-08-01T14:24:28;22.70;56.20
20492;DHT22;10404;51.468;6.762;2023-08-01T14:26:53;22.80;55.70
20492;DHT22;10404;51.468;6.762;2023-08-01T14:29:19;22.90;55.70
20492;DHT22;10404;51.468;6.762;2023-08-01T14:31:50;23.00;55.50
20492;DHT22;10404;51.468;6.762;2023-08-01T14:34:16;23.10;55.30
20492;DHT22;10404;51.468;6.762;2023-08-01T14:36:42;23.20;55.30
20492;DHT22;10404;51.468;6.762;2023-08-01T14:39:07;23.30;55.00
20492;DHT22;10404;51.468;6.762;2023-08-01T14:41:33;23.40;54.60
20492;DHT22;10404;51.468;6.762;2023-08-01T14:43:59;23.50;54.50
20492;DHT22;10404;51.468;6.762;2023-08-01T14:46:24;23.50;54.40
20492;DHT22;10404;51.468;6.762;2023-08-01T14:48:50;23.60;54.40
20492;DHT22;10404;51.468;6.762;2023-08-01T14:51:16;23.60;54.00
20492;DHT22;10404;51.468;6.762;2023-08-01T14:53:42;23.60;53.90
20492;DHT22;10404;51.468;6.762;2023-08-01T14:56:07;23.60;54.00
20492;DHT22;10404;51.468;6.762;2023-08-01T14:58:34;23.60;53.70
20492;DHT22;10404;51.468;6.762;2023-08-01T15:01:05;23.80;53.30
20492;DHT22;10404;51.468;6.762;2023-08-01T15:03:31;23.90;53.40
20492;DHT22;10404;51.468;6.762;2023-08-01T15:06:05;24.00;53.10
20492;DHT22;10404;51.468;6.762;2023-08-01T15:08:30;24.00;53.30
20492;DHT22;10404;51.468;6.762;2023-08-01T15:10:56;24.00;52.80
20492;DHT22;10404;51.468;6.762;2023-08-01T15:13:22;24.00;52.50
20492;DHT22;10404;51.468;6.762;2023-08-01T15:15:47;24.00;52.10
20492;DHT22;10404;51.468;6.762;2023-08-01T15:18:13;24.10;51.90
20492;DHT22;10404;51.468;6.762;2023-08-01T15:20:38;24.00;51.20
20492;DHT22;10404;51.468;6.762;2023-08-01T15:23:06;24.20;51.30
20492;DHT22;10404;51.468;6.762;2023-08-01T15:25:32;24.30;51.70
20492;DHT22;10404;51.468;6.762;2023-08-01T15:27:57;24.20;51.70